Time;durP1;ratioP1;P1;durP2;ratioP2;P2;SDS_P1;SDS_P2;PMS_P1;PMS_P2;Temp;Humidity;BMP_temperature;BMP_pressure;BME280_temperature;BME280_humidity;BME280_pressure;Samples;Min_cycle;Max_cycle;Signal;HPM_P1;HPM_P2
2023/09/12 00:01:22;;;;;;;36.20;34.30;;;;;;;15.55;100.00;101140.06;4996286;28;20069;-80
2023/09/12 00:03:48;;;;;;;41.83;39.63;;;;;;;15.58;100.00;101145.78;4988698;28;20042;-81
2023/09/12 00:06:15;;;;;;;40.30;38.20;;;;;;;15.64;100.00;101137.88;4994617;28;20065;-81
2023/09/12 00:08:42;;;;;;;36.10;34.10;;;;;;;15.68;100.00;101139.91;4995519;28;20057;-81
2023/09/12 00:11:11;;;;;;;40.20;38.20;;;;;;;15.87;100.00;101139.81;4996998;28;20439;-81
2023/09/12 00:13:38;;;;;;;45.83;43.53;;;;;;;15.34;100.00;101139.53;4993434;28;20440;-81
2023/09/12 00:16:05;;;;;;;47.60;45.30;;;;;;;15.38;100.00;101139.09;4989658;28;20055;-81
2023/09/12 00:18:35;;;;;;;39.13;37.33;;;;;;;15.28;100.00;101132.41;4983798;28;20042;-80
2023/09/12 00:21:02;;;;;;;39.90;37.90;;;;;;;15.47;100.00;101132.38;4985910;28;20050;-81
2023/09/12 00:23:29;;;;;;;42.97;40.78;;;;;;;15.49;100.00;101130.25;4982748;28;20050;-75
2023/09/12 00:25:57;;;;;;;37.95;35.92;;;;;;;14.79;100.00;101144.94;4986596;28;20057;-80
2023/09/12 00:28:24;;;;;;;33.10;31.15;;;;;;;15.16;100.00;101136.91;4983419;28;20039;-80
2023/09/12 00:30:52;;;;;;;46.63;44.33;;;;;;;15.23;100.00;101142.97;4982777;28;20055;-81
2023/09/12 00:33:19;;;;;;;41.50;39.40;;;;;;;14.92;100.00;101145.84;4982628;28;20046;-81
2023/09/12 00:35:47;;;;;;;49.50;47.10;;;;;;;15.05;100.00;101149.16;4980742;28;20147;-81
2023/09/12 00:38:14;;;;;;;40.63;38.47;;;;;;;14.99;100.00;101151.94;4981451;28;20047;-81
2023/09/12 00:40:40;;;;;;;41.53;39.33;;;;;;;15.20;100.00;101154.13;4985721;28;20054;-81
2023/09/12 00:43:08;;;;;;;41.33;39.13;;;;;;;15.55;100.00;101154.28;4984487;28;20050;-81
2023/09/12 00:45:37;;;;;;;38.30;36.40;;;;;;;15.32;100.00;101141.63;4983544;28;20050;-81
2023/09/12 00:48:08;;;;;;;38.70;36.80;;;;;;;15.18;100.00;101152.72;4977544;28;20109;-81
2023/09/12 00:50:37;;;;;;;38.70;36.60;;;;;;;15.27;100.00;101152.19;4984380;28;20130;-81
2023/09/12 00:53:06;;;;;;;43.15;41.05;;;;;;;15.45;100.00;101145.97;4986804;28;20057;-81
2023/09/12 00:55:34;;;;;;;38.25;36.17;;;;;;;15.37;100.00;101150.81;4983395;28;20128;-80
2023/09/12 00:58:02;;;;;;;35.10;33.20;;;;;;;15.42;100.00;101149.09;4982578;28;20043;-81
2023/09/12 01:00:29;;;;;;;45.78;43.58;;;;;;;15.49;100.00;101152.50;4984752;28;20061;-81
2023/09/12 01:02:57;;;;;;;39.45;37.45;;;;;;;15.71;100.00;101158.19;4979250;28;20047;-80
2023/09/12 01:05:24;;;;;;;37.58;35.63;;;;;;;14.81;100.00;101163.47;4980941;28;20164;-81
2023/09/12 01:07:51;;;;;;;34.47;32.58;;;;;;;15.18;100.00;101155.41;4987682;28;20054;-81
2023/09/12 01:10:20;;;;;;;33.85;32.00;;;;;;;15.57;100.00;101160.19;4982534;28;20057;-81
2023/09/12 01:12:46;;;;;;;42.40;40.30;;;;;;;15.24;100.00;101155.31;4980096;28;20039;-80
2023/09/12 01:15:14;;;;;;;47.78;45.38;;;;;;;15.13;100.00;101161.44;4983857;28;20523;-81
2023/09/12 01:17:43;;;;;;;40.20;38.10;;;;;;;15.47;100.00;101161.81;4986459;28;20054;-81
2023/09/12 01:20:15;;;;;;;43.20;40.97;;;;;;;15.42;100.00;101169.69;4982085;28;20050;-80
2023/09/12 01:22:56;;;;;;;46.40;44.17;;;;;;;15.51;100.00;101158.44;4987615;28;20049;-75
2023/09/12 01:26:06;;;;;;;53.35;50.75;;;;;;;15.04;100.00;101166.28;4979301;28;20051;-75
2023/09/12 01:28:35;;;;;;;46.35;43.95;;;;;;;15.45;100.00;101161.22;4968953;28;20496;-81
2023/09/12 01:31:03;;;;;;;54.58;52.00;;;;;;;15.28;100.00;101169.03;4978228;28;20421;-81
2023/09/12 01:33:30;;;;;;;46.08;43.85;;;;;;;15.35;100.00;101162.56;4985087;28;20050;-75
2023/09/12 01:35:57;;;;;;;43.30;41.10;;;;;;;15.35;100.00;101165.25;4985065;28;20046;-80
2023/09/12 01:38:24;;;;;;;33.65;31.95;;;;;;;15.09;100.00;101163.72;4985269;28;20409;-75
2023/09/12 01:40:53;;;;;;;39.15;37.15;;;;;;;15.18;100.00;101164.22;4988300;28;20052;-75
2023/09/12 01:43:23;;;;;;;33.92;32.13;;;;;;;14.99;100.00;101166.13;4978758;28;20047;-75
2023/09/12 01:45:55;;;;;;;33.63;31.83;;;;;;;14.83;100.00;101167.53;4974738;28;20055;-80
2023/09/12 01:48:26;;;;;;;35.10;33.30;;;;;;;14.34;100.00;101169.25;4976692;28;20038;-80
2023/09/12 01:50:53;;;;;;;30.25;27.88;;;;;;;14.51;100.00;101174.03;4980361;28;20051;-80
2023/09/12 01:53:20;;;;;;;33.47;31.67;;;;;;;14.81;100.00;101166.94;4981279;28;20073;-80
2023/09/12 01:55:49;;;;;;;49.75;47.15;;;;;;;14.72;100.00;101172.81;4982583;28;20066;-81
2023/09/12 01:58:16;;;;;;;42.28;39.88;;;;;;;14.94;100.00;101163.28;4980390;28;20050;-81
2023/09/12 02:00:43;;;;;;;38.70;36.70;;;;;;;14.34;100.00;101176.44;4985804;28;20050;-80
2023/09/12 02:03:11;;;;;;;56.65;54.15;;;;;;;14.67;100.00;101173.47;4986402;28;20053;-80
2023/09/12 02:05:39;;;;;;;51.45;49.10;;;;;;;14.66;100.00;101175.31;4983533;28;20051;-80
2023/09/12 02:08:06;;;;;;;67.65;64.55;;;;;;;14.78;100.00;101177.28;4986213;28;20042;-80
2023/09/12 02:10:33;;;;;;;49.47;47.08;;;;;;;14.79;100.00;101173.53;4982010;28;20046;-81
2023/09/12 02:13:00;;;;;;;34.92;33.22;;;;;;;14.55;100.00;101173.38;4984309;28;20038;-81
2023/09/12 02:15:27;;;;;;;36.78;34.97;;;;;;;14.42;100.00;101178.81;4979091;28;20051;-81
2023/09/12 02:17:54;;;;;;;27.52;25.92;;;;;;;14.39;100.00;101177.41;4978185;28;20522;-80
2023/09/12 02:20:22;;;;;;;31.52;29.63;;;;;;;13.67;100.00;101168.13;4980645;28;20046;-80
2023/09/12 02:22:49;;;;;;;37.00;35.20;;;;;;;14.22;100.00;101176.34;4984016;28;20050;-80
2023/09/12 02:25:16;;;;;;;49.28;46.97;;;;;;;14.30;100.00;101180.59;4984300;28;20547;-80
2023/09/12 02:27:42;;;;;;;39.47;37.67;;;;;;;14.32;100.00;101175.84;4982169;28;20050;-80
2023/09/12 02:30:10;;;;;;;54.65;52.25;;;;;;;14.36;100.00;101177.03;4974720;28;20061;-80
2023/09/12 02:32:37;;;;;;;46.88;44.67;;;;;;;14.21;100.00;101185.38;4977938;28;20130;-80
2023/09/12 02:35:04;;;;;;;40.58;38.67;;;;;;;14.03;100.00;101183.47;4982152;28;20062;-80
2023/09/12 02:37:32;;;;;;;41.03;39.13;;;;;;;14.29;100.00;101179.78;4981230;28;20047;-80
2023/09/12 02:39:59;;;;;;;34.42;32.72;;;;;;;13.95;100.00;101184.56;4979545;28;20056;-80
2023/09/12 02:42:26;;;;;;;31.35;29.75;;;;;;;14.17;100.00;101178.84;4984525;28;20044;-80
2023/09/12 02:44:53;;;;;;;29.50;27.90;;;;;;;14.13;100.00;101178.47;4986200;28;20050;-80
2023/09/12 02:47:20;;;;;;;60.67;57.17;;;;;;;13.90;100.00;101180.91;4986294;28;20055;-80
2023/09/12 02:49:47;;;;;;;34.83;33.03;;;;;;;14.00;100.00;101196.44;4981909;28;20054;-80
2023/09/12 02:52:14;;;;;;;56.25;53.35;;;;;;;13.78;100.00;101188.78;4989318;28;20050;-75
2023/09/12 02:54:42;;;;;;;46.95;44.75;;;;;;;13.86;100.00;101193.88;4988817;28;20046;-76
2023/09/12 02:57:09;;;;;;;37.78;35.78;;;;;;;14.29;100.00;101197.66;4984736;28;20057;-75
2023/09/12 02:59:35;;;;;;;29.15;27.55;;;;;;;14.04;100.00;101194.97;4985170;28;20047;-74
2023/09/12 03:02:02;;;;;;;31.48;29.88;;;;;;;14.14;100.00;101189.97;4985366;28;20496;-75
2023/09/12 03:04:30;;;;;;;37.47;35.53;;;;;;;13.89;100.00;101188.09;4983624;28;20042;-75
2023/09/12 03:06:57;;;;;;;34.85;33.05;;;;;;;13.78;100.00;101198.66;4984755;28;20054;-80
2023/09/12 03:09:24;;;;;;;30.73;29.02;;;;;;;13.72;100.00;101195.00;4990061;28;20054;-81
2023/09/12 03:11:52;;;;;;;30.77;29.08;;;;;;;13.43;100.00;101196.38;4989759;28;20069;-80
2023/09/12 03:14:19;;;;;;;27.40;25.90;;;;;;;13.71;100.00;101196.03;4985290;28;20054;-80
2023/09/12 03:16:46;;;;;;;28.92;27.23;;;;;;;13.63;100.00;101199.75;4985713;28;20442;-80
2023/09/12 03:19:13;;;;;;;28.80;27.30;;;;;;;13.60;100.00;101200.19;4988715;28;20054;-75
2023/09/12 03:21:39;;;;;;;24.98;23.48;;;;;;;13.44;100.00;101204.19;4989868;28;20047;-75
2023/09/12 03:24:07;;;;;;;30.67;29.05;;;;;;;13.56;100.00;101195.50;4985999;28;20046;-75
2023/09/12 03:26:37;;;;;;;29.45;27.75;;;;;;;13.44;100.00;101206.84;4994168;28;20050;-75
2023/09/12 03:29:06;;;;;;;31.30;29.65;;;;;;;13.48;100.00;101191.22;4998270;28;20050;-75
2023/09/12 03:31:32;;;;;;;26.02;24.50;;;;;;;13.44;100.00;101201.50;4995670;28;20038;-75
2023/09/12 03:33:59;;;;;;;26.75;25.25;;;;;;;13.39;100.00;101195.97;4990712;28;20050;-75
2023/09/12 03:36:26;;;;;;;25.60;24.30;;;;;;;13.32;100.00;101205.88;4994183;28;20049;-75
2023/09/12 03:38:53;;;;;;;39.78;37.88;;;;;;;13.19;100.00;101206.72;5000002;28;20054;-74
2023/09/12 03:41:22;;;;;;;32.28;30.67;;;;;;;13.17;100.00;101200.78;4996181;28;20047;-75
2023/09/12 03:43:49;;;;;;;29.73;28.23;;;;;;;13.08;100.00;101204.72;4986234;28;20137;-78
2023/09/12 03:46:17;;;;;;;28.80;27.30;;;;;;;13.20;100.00;101200.34;4987049;28;20059;-74
2023/09/12 03:48:44;;;;;;;22.95;21.65;;;;;;;12.95;100.00;101197.56;4979017;28;20122;-74
2023/09/12 03:51:11;;;;;;;22.77;21.48;;;;;;;13.02;100.00;101202.88;4980226;28;20542;-75
2023/09/12 03:53:37;;;;;;;22.90;21.60;;;;;;;13.18;100.00;101198.91;4987721;28;20047;-80
2023/09/12 03:56:07;;;;;;;23.08;21.58;;;;;;;12.88;100.00;101206.59;4996468;28;20053;-80
2023/09/12 03:58:34;;;;;;;24.00;22.50;;;;;;;12.73;100.00;101204.19;4999590;28;20444;-74
2023/09/12 04:01:00;;;;;;;22.05;20.55;;;;;;;12.81;100.00;101203.97;4991215;28;20054;-75
2023/09/12 04:03:29;;;;;;;23.10;21.70;;;;;;;12.90;100.00;101201.91;4988253;28;20423;-75
2023/09/12 04:05:56;;;;;;;19.95;18.65;;;;;;;12.92;100.00;101205.16;4983613;28;20070;-75
2023/09/12 04:08:22;;;;;;;20.35;19.05;;;;;;;13.18;100.00;101213.06;4988781;28;20046;-75
2023/09/12 04:10:49;;;;;;;21.05;19.67;;;;;;;13.28;100.00;101215.31;4990310;28;20523;-79
2023/09/12 04:13:16;;;;;;;21.50;20.00;;;;;;;13.11;100.00;101214.13;4980137;28;20047;-75
2023/09/12 04:15:43;;;;;;;20.60;19.20;;;;;;;12.86;100.00;101216.66;4981498;28;20050;-76
2023/09/12 04:18:10;;;;;;;19.00;17.80;;;;;;;12.99;100.00;101228.13;4979200;28;20065;-75
2023/09/12 04:20:38;;;;;;;21.23;20.02;;;;;;;12.68;100.00;101227.97;4985457;28;20058;-75
2023/09/12 04:23:05;;;;;;;22.40;21.00;;;;;;;12.99;100.00;101217.44;4984067;28;20061;-75
2023/09/12 04:25:33;;;;;;;22.90;21.50;;;;;;;13.15;100.00;101224.16;4987374;28;20053;-75
2023/09/12 04:28:00;;;;;;;21.08;19.88;;;;;;;13.36;100.00;101232.94;4987826;28;20053;-75
2023/09/12 04:30:27;;;;;;;22.40;21.10;;;;;;;13.42;100.00;101227.56;4988464;28;20118;-75
2023/09/12 04:32:54;;;;;;;24.30;22.90;;;;;;;13.44;100.00;101222.84;4986328;28;20057;-75
2023/09/12 04:35:21;;;;;;;22.02;20.73;;;;;;;13.44;100.00;101219.38;4977648;28;20133;-76
2023/09/12 04:37:49;;;;;;;21.20;19.90;;;;;;;18.50;100.00;101216.97;4988562;28;20428;-75
2023/09/12 04:40:16;;;;;;;22.70;21.20;;;;;;;21.38;100.00;101205.84;4987160;28;20457;-76
2023/09/12 04:42:43;;;;;;;22.90;21.40;;;;;;;22.57;100.00;101202.09;4986160;28;20050;-75
2023/09/12 04:45:10;;;;;;;24.30;22.80;;;;;;;16.46;100.00;101219.22;4979103;28;20073;-75
2023/09/12 04:47:37;;;;;;;24.50;22.90;;;;;;;15.00;100.00;101231.94;4981013;28;20073;-81
2023/09/12 04:50:04;;;;;;;24.13;22.52;;;;;;;14.73;100.00;101227.91;4975758;28;20452;-80
2023/09/12 04:52:31;;;;;;;22.08;20.77;;;;;;;14.64;100.00;101230.88;4979704;28;20058;-80
2023/09/12 04:54:59;;;;;;;23.58;22.08;;;;;;;14.81;100.00;101235.66;4979331;28;20046;-81
2023/09/12 04:57:28;;;;;;;21.77;20.48;;;;;;;14.64;100.00;101236.25;4978447;28;20046;-75
2023/09/12 04:59:55;;;;;;;22.33;20.98;;;;;;;14.64;100.00;101249.59;4979169;28;20165;-80
2023/09/12 05:02:21;;;;;;;22.65;21.35;;;;;;;14.87;100.00;101246.28;4984977;28;20511;-75
2023/09/12 05:04:48;;;;;;;21.45;20.15;;;;;;;14.95;100.00;101250.53;4979671;28;20088;-75
2023/09/12 05:07:15;;;;;;;34.33;32.53;;;;;;;18.37;100.00;101235.34;4975934;28;20058;-75
2023/09/12 05:09:42;;;;;;;35.03;33.13;;;;;;;21.94;100.00;101221.38;4984508;28;20500;-77
2023/09/12 05:12:11;;;;;;;38.20;36.00;;;;;;;22.58;100.00;101228.91;4984837;28;20047;-77
2023/09/12 05:14:37;;;;;;;33.10;31.10;;;;;;;23.24;100.00;101225.22;4984542;28;20043;-78
2023/09/12 05:17:04;;;;;;;34.38;32.47;;;;;;;23.52;100.00;101225.59;4977827;28;20440;-78
2023/09/12 05:19:31;;;;;;;28.52;26.92;;;;;;;23.64;100.00;101220.66;4976746;28;20049;-78
2023/09/12 05:21:58;;;;;;;35.58;33.58;;;;;;;23.79;100.00;101230.59;4982589;28;20058;-78
2023/09/12 05:24:25;;;;;;;40.75;38.45;;;;;;;23.90;100.00;101218.56;4983381;28;20057;-79
2023/09/12 05:26:52;;;;;;;33.58;31.67;;;;;;;23.97;100.00;101229.13;4987881;28;20063;-78
2023/09/12 05:29:20;;;;;;;29.38;27.77;;;;;;;22.21;100.00;101226.53;4989854;28;20043;-75
2023/09/12 05:31:47;;;;;;;35.00;33.10;;;;;;;19.02;100.00;101236.56;4984747;28;20061;-74
2023/09/12 05:34:14;;;;;;;39.30;37.20;;;;;;;17.32;100.00;101237.47;4983994;28;20053;-78
2023/09/12 05:36:41;;;;;;;35.75;33.85;;;;;;;16.76;100.00;101242.44;4978681;28;20058;-79
2023/09/12 05:39:09;;;;;;;39.33;37.22;;;;;;;17.10;100.00;101240.78;4977633;28;20992;-79
2023/09/12 05:41:36;;;;;;;36.25;34.25;;;;;;;17.10;100.00;101237.28;4979340;28;20502;-79
2023/09/12 05:44:02;;;;;;;35.58;33.67;;;;;;;17.17;100.00;101235.28;4985901;28;20042;-79
2023/09/12 05:46:31;;;;;;;38.55;36.55;;;;;;;17.46;100.00;101241.50;4987235;28;20116;-79
2023/09/12 05:48:58;;;;;;;38.20;36.30;;;;;;;17.66;100.00;101235.69;4982801;28;20051;-79
2023/09/12 05:51:24;;;;;;;39.90;38.00;;;;;;;17.51;100.00;101230.84;4988592;28;20702;-79
2023/09/12 05:53:51;;;;;;;43.65;41.45;;;;;;;17.78;100.00;101238.38;4989134;28;20061;-80
2023/09/12 05:56:20;;;;;;;39.97;37.88;;;;;;;17.73;100.00;101241.75;4987392;28;20058;-79
2023/09/12 05:58:47;;;;;;;43.97;41.78;;;;;;;17.94;100.00;101234.06;4980853;28;20085;-79
2023/09/12 06:01:14;;;;;;;40.58;38.47;;;;;;;18.05;100.00;101235.88;4981121;28;20093;-79
2023/09/12 06:03:44;;;;;;;50.95;48.45;;;;;;;18.21;100.00;101227.00;4982597;28;20042;-79
2023/09/12 06:06:11;;;;;;;47.22;44.92;;;;;;;18.39;100.00;101228.63;4983736;28;20050;-80
2023/09/12 06:08:38;;;;;;;42.50;40.30;;;;;;;18.49;100.00;101236.88;4987400;28;20133;-80
2023/09/12 06:11:05;;;;;;;50.17;47.78;;;;;;;18.78;100.00;101234.06;4986395;28;20042;-75
2023/09/12 06:13:32;;;;;;;52.78;50.17;;;;;;;18.95;100.00;101232.16;4988227;28;20042;-74
2023/09/12 06:15:59;;;;;;;50.60;48.20;;;;;;;18.88;100.00;101236.94;4988253;28;20065;-80
2023/09/12 06:18:28;;;;;;;41.80;39.63;;;;;;;19.26;100.00;101234.44;4987385;28;20042;-80
2023/09/12 06:20:57;;;;;;;38.45;36.55;;;;;;;19.28;100.00;101226.94;4985320;28;20042;-75
2023/09/12 06:23:24;;;;;;;39.55;37.45;;;;;;;19.50;100.00;101234.97;4985115;28;20054;-75
2023/09/12 06:25:51;;;;;;;30.50;28.90;;;;;;;19.60;100.00;101235.06;4983602;28;20490;-79
2023/09/12 06:28:26;;;;;;;29.50;27.75;;;;;;;19.98;100.00;101230.63;4987743;28;20051;-80
2023/09/12 06:30:53;;;;;;;31.10;29.40;;;;;;;20.13;100.00;101234.28;4986230;28;20055;-80
2023/09/12 06:33:20;;;;;;;31.50;29.70;;;;;;;20.36;100.00;101230.41;4986693;28;20046;-79
2023/09/12 06:35:49;;;;;;;40.97;38.67;;;;;;;20.69;100.00;101233.06;4988162;28;20074;-80
2023/09/12 06:38:17;;;;;;;30.52;29.00;;;;;;;21.15;100.00;101236.00;4986997;28;20043;-80
2023/09/12 06:40:44;;;;;;;28.98;27.38;;;;;;;20.99;100.00;101240.53;4986274;28;20116;-80
2023/09/12 06:43:11;;;;;;;44.08;41.78;;;;;;;21.02;100.00;101237.28;4988856;28;20054;-80
2023/09/12 06:45:38;;;;;;;45.92;43.25;;;;;;;21.69;100.00;101241.06;4987693;28;20042;-80
2023/09/12 06:48:06;;;;;;;41.90;39.53;;;;;;;21.95;100.00;101241.91;4984794;28;20050;-80
2023/09/12 06:50:37;;;;;;;41.90;39.60;;;;;;;21.86;100.00;101235.41;4988445;28;20129;-80
2023/09/12 06:53:06;;;;;;;39.00;36.70;;;;;;;22.25;100.00;101238.44;4986721;28;20046;-80
2023/09/12 06:55:36;;;;;;;42.15;39.75;;;;;;;22.14;100.00;101245.69;4986290;28;20053;-75
2023/09/12 06:58:03;;;;;;;43.15;40.53;;;;;;;22.24;100.00;101247.63;4987239;28;20086;-75
2023/09/12 07:00:31;;;;;;;45.78;42.55;;;;;;;22.59;100.00;101233.25;4987800;28;20054;-75
2023/09/12 07:02:58;;;;;;;48.78;45.40;;;;;;;22.77;100.00;101236.44;4988582;28;20050;-75
2023/09/12 07:05:25;;;;;;;37.67;35.58;;;;;;;23.24;100.00;101240.66;4986282;28;20863;-75
2023/09/12 07:07:53;;;;;;;27.73;26.13;;;;;;;23.01;100.00;101242.91;4985577;28;20063;-75
2023/09/12 07:10:20;;;;;;;25.23;23.73;;;;;;;23.18;100.00;101231.75;4985114;28;20528;-76
2023/09/12 07:12:48;;;;;;;26.73;25.13;;;;;;;22.83;100.00;101240.78;4978269;28;20050;-76
2023/09/12 07:15:15;;;;;;;41.63;39.00;;;;;;;22.73;100.00;101248.94;4984788;28;20046;-75
2023/09/12 07:17:42;;;;;;;40.75;38.15;;;;;;;23.41;100.00;101249.22;4979393;28;20149;-75
2023/09/12 07:20:11;;;;;;;38.55;36.25;;;;;;;23.50;100.00;101249.47;4984412;28;20086;-75
2023/09/12 07:22:39;;;;;;;41.13;38.72;;;;;;;23.74;100.00;101249.63;4981695;28;20078;-75
2023/09/12 07:25:09;;;;;;;26.83;25.33;;;;;;;23.82;100.00;101249.03;4982789;28;20508;-75
2023/09/12 07:27:36;;;;;;;29.30;26.52;;;;;;;24.28;100.00;101242.44;4985954;28;20101;-75
2023/09/12 07:30:05;;;;;;;42.55;40.05;;;;;;;24.45;100.00;101242.84;4986392;28;20136;-75
2023/09/12 07:32:32;;;;;;;44.92;42.22;;;;;;;24.62;100.00;101240.47;4990888;28;20056;-75
2023/09/12 07:34:59;;;;;;;44.85;41.85;;;;;;;24.76;100.00;101246.06;4988343;28;20173;-75
2023/09/12 07:37:26;;;;;;;40.60;38.40;;;;;;;25.14;100.00;101246.16;4979989;28;20184;-75
2023/09/12 07:39:53;;;;;;;35.45;33.45;;;;;;;25.33;100.00;101243.50;4985186;28;20548;-80
2023/09/12 07:42:22;;;;;;;34.65;32.63;;;;;;;25.47;100.00;101238.94;4985918;28;20117;-79
2023/09/12 07:44:49;;;;;;;33.03;31.02;;;;;;;25.76;100.00;101243.44;4980841;28;20046;-80
2023/09/12 07:47:18;;;;;;;24.38;22.77;;;;;;;26.10;100.00;101247.81;4981352;28;20055;-75
2023/09/12 07:49:44;;;;;;;24.67;23.15;;;;;;;26.13;100.00;101241.78;4986389;28;20050;-75
2023/09/12 07:52:11;;;;;;;23.65;22.15;;;;;;;26.58;100.00;101236.66;4979756;28;20819;-75
2023/09/12 07:54:38;;;;;;;24.67;23.08;;;;;;;25.53;100.00;101243.19;4974568;28;20421;-80
2023/09/12 07:57:08;;;;;;;26.10;24.35;;;;;;;26.01;100.00;101236.81;4977703;28;20045;-80
2023/09/12 07:59:37;;;;;;;24.75;23.15;;;;;;;26.64;100.00;101239.00;4986903;28;20047;-80
2023/09/12 08:02:05;;;;;;;39.70;37.53;;;;;;;27.14;100.00;101230.06;4987275;28;20573;-80
2023/09/12 08:04:33;;;;;;;43.13;40.72;;;;;;;27.01;100.00;101234.44;4985260;28;20050;-81
2023/09/12 08:07:00;;;;;;;45.25;42.95;;;;;;;26.72;100.00;101234.78;4983267;28;20050;-80
2023/09/12 08:09:49;;;;;;;41.67;39.47;;;;;;;27.06;100.00;101239.00;4981257;28;20474;-76
2023/09/12 08:12:16;;;;;;;43.25;40.95;;;;;;;27.30;100.00;101230.59;4986260;28;20185;-75
2023/09/12 08:14:43;;;;;;;38.78;36.72;;;;;;;26.46;100.00;101237.91;4982313;28;20042;-82
2023/09/12 08:17:10;;;;;;;35.65;33.72;;;;;;;27.48;100.00;101242.50;4984231;28;20054;-80
2023/09/12 08:19:38;;;;;;;32.22;30.33;;;;;;;27.13;100.00;101239.38;4983216;28;20500;-81
2023/09/12 08:22:07;;;;;;;33.50;31.60;;;;;;;27.54;100.00;101246.72;4974099;28;20523;-75
2023/09/12 08:24:34;;;;;;;24.83;23.23;;;;;;;27.55;98.21;101235.47;4975041;28;20595;-75
2023/09/12 08:27:01;;;;;;;33.08;31.17;;;;;;;27.70;100.00;101238.97;4984309;28;20448;-75
2023/09/12 08:29:29;;;;;;;35.08;33.08;;;;;;;27.64;96.38;101232.81;4977080;28;20061;-76
2023/09/12 08:31:55;;;;;;;33.17;31.38;;;;;;;28.51;95.34;101230.72;4984180;28;20424;-75
2023/09/12 08:34:22;;;;;;;33.90;32.10;;;;;;;29.20;84.31;101220.03;4978795;28;20050;-76
2023/09/12 08:36:51;;;;;;;33.75;31.85;;;;;;;28.81;85.68;101226.34;4984636;28;20073;-75
2023/09/12 08:39:23;;;;;;;36.08;33.88;;;;;;;27.83;90.91;101236.22;4981738;28;20512;-75
2023/09/12 08:41:50;;;;;;;34.35;32.35;;;;;;;27.73;92.22;101227.44;4976940;28;20042;-76
2023/09/12 08:44:17;;;;;;;34.65;32.75;;;;;;;27.52;88.37;101229.84;4982073;28;20054;-75
2023/09/12 08:46:46;;;;;;;24.13;22.63;;;;;;;28.04;90.04;101228.31;4984113;28;20050;-76
2023/09/12 08:49:13;;;;;;;22.88;21.35;;;;;;;27.47;87.18;101229.94;4985024;28;20055;-76
2023/09/12 08:51:41;;;;;;;22.02;20.42;;;;;;;26.34;94.58;101220.47;4981385;28;20456;-75
2023/09/12 08:54:09;;;;;;;23.23;21.73;;;;;;;28.76;76.36;101219.06;4974715;28;20061;-75
2023/09/12 08:56:42;;;;;;;23.55;22.15;;;;;;;28.84;77.09;101225.69;4976396;28;20113;-75
2023/09/12 08:59:10;;;;;;;25.10;23.50;;;;;;;27.37;86.86;101223.59;4981122;28;20051;-76
2023/09/12 09:01:38;;;;;;;25.50;23.70;;;;;;;27.71;76.55;101225.00;4986053;28;20430;-75
2023/09/12 09:04:06;;;;;;;25.90;24.30;;;;;;;29.19;65.22;101214.84;4985580;28;20539;-76
2023/09/12 09:06:37;;;;;;;25.48;23.88;;;;;;;29.48;66.54;101214.25;4979953;28;20073;-75
2023/09/12 09:09:05;;;;;;;24.88;23.27;;;;;;;28.70;59.83;101214.88;4982148;28;20056;-76
2023/09/12 09:11:35;;;;;;;24.33;22.73;;;;;;;27.49;88.50;101223.06;4979697;28;20503;-75
2023/09/12 09:14:06;;;;;;;24.70;23.00;;;;;;;28.80;61.63;101210.22;4974686;28;20149;-81
2023/09/12 09:16:35;;;;;;;24.88;23.30;;;;;;;28.48;76.46;101210.28;4980172;28;20459;-81
2023/09/12 09:19:05;;;;;;;24.98;23.13;;;;;;;30.00;58.48;101208.72;4983705;28;20059;-81
2023/09/12 09:21:33;;;;;;;24.92;23.33;;;;;;;30.53;56.10;101206.66;4978185;28;20047;-81
2023/09/12 09:24:03;;;;;;;24.27;22.67;;;;;;;31.56;50.42;101200.88;4982227;28;20409;-81
2023/09/12 09:26:43;;;;;;;24.83;23.13;;;;;;;31.45;48.54;101205.97;4979393;28;20078;-81
2023/09/12 09:29:12;;;;;;;28.60;26.67;;;;;;;30.08;54.66;101202.44;4984091;28;20050;-81
2023/09/12 09:31:42;;;;;;;28.08;25.92;;;;;;;29.84;55.34;101202.97;4983654;28;20495;-81
2023/09/12 09:34:13;;;;;;;25.67;23.88;;;;;;;29.63;56.19;101202.84;4980666;28;20047;-75
2023/09/12 09:36:42;;;;;;;24.10;22.40;;;;;;;30.97;48.54;101197.09;4994258;28;20055;-76
2023/09/12 09:39:10;;;;;;;20.02;18.48;;;;;;;32.19;41.75;101200.75;4987279;28;20050;-76
2023/09/12 09:41:38;;;;;;;24.27;22.67;;;;;;;29.80;60.83;101193.78;4994749;28;20057;-76
2023/09/12 09:44:06;;;;;;;25.65;24.05;;;;;;;31.52;48.59;101197.19;4990595;28;20050;-76
2023/09/12 09:46:33;;;;;;;27.92;25.85;;;;;;;31.77;44.06;101192.59;4995839;28;20046;-75
2023/09/12 09:49:00;;;;;;;24.98;23.48;;;;;;;30.30;43.82;101192.41;4995252;28;20054;-75
2023/09/12 09:51:27;;;;;;;21.50;20.00;;;;;;;31.26;42.77;101185.28;4995043;28;20053;-76
2023/09/12 09:53:58;;;;;;;23.02;21.52;;;;;;;32.21;38.35;101182.78;4996858;28;20057;-76
2023/09/12 09:56:26;;;;;;;22.20;20.60;;;;;;;30.50;43.47;101196.34;4992800;28;20046;-76
2023/09/12 09:58:55;;;;;;;25.65;23.85;;;;;;;31.01;39.69;101192.53;4993501;28;20046;-76
2023/09/12 10:01:25;;;;;;;23.88;22.38;;;;;;;30.56;42.67;101189.53;4980429;28;20600;-76
2023/09/12 10:03:53;;;;;;;23.95;22.45;;;;;;;30.11;50.70;101184.56;4982535;28;20109;-76
2023/09/12 10:06:21;;;;;;;27.60;25.90;;;;;;;31.80;42.68;101184.50;4978655;28;20065;-76
2023/09/12 10:08:53;;;;;;;26.95;25.30;;;;;;;30.35;43.22;101179.34;4981751;28;20051;-76
2023/09/12 10:11:24;;;;;;;26.75;25.05;;;;;;;32.89;38.03;101167.66;4983019;28;20437;-81
2023/09/12 10:13:54;;;;;;;24.48;22.88;;;;;;;31.83;38.93;101181.09;4977228;28;20046;-76
2023/09/12 10:16:25;;;;;;;21.00;19.50;;;;;;;30.32;49.37;101177.25;4989764;28;20487;-76
2023/09/12 10:19:00;;;;;;;25.17;23.48;;;;;;;29.70;58.90;101171.44;4976975;28;20047;-76
2023/09/12 10:21:31;;;;;;;28.38;26.67;;;;;;;31.10;45.37;101164.25;4973825;28;20108;-76
2023/09/12 10:24:00;;;;;;;28.98;27.27;;;;;;;30.58;52.66;101168.91;4977612;28;20105;-76
2023/09/12 10:26:28;;;;;;;25.73;24.13;;;;;;;29.95;46.63;101161.56;4980274;28;20049;-76
2023/09/12 10:28:56;;;;;;;25.50;23.80;;;;;;;29.51;60.59;101172.56;4992132;28;20183;-76
2023/09/12 10:31:25;;;;;;;25.77;24.13;;;;;;;31.39;46.36;101168.91;4987293;28;20046;-81
2023/09/12 10:33:53;;;;;;;32.13;29.48;;;;;;;29.75;60.45;101171.28;4980649;28;20142;-82
2023/09/12 10:36:21;;;;;;;23.52;21.73;;;;;;;31.90;43.02;101164.88;4981986;28;20069;-76
2023/09/12 10:38:49;;;;;;;23.25;21.55;;;;;;;31.60;49.49;101157.91;4981499;28;20042;-76
2023/09/12 10:41:17;;;;;;;23.02;21.33;;;;;;;29.97;50.75;101157.38;4978148;28;20497;-80
2023/09/12 10:43:49;;;;;;;24.50;22.52;;;;;;;32.40;46.96;101152.78;4972778;28;20046;-81
2023/09/12 10:46:17;;;;;;;24.73;22.15;;;;;;;33.00;42.00;101141.31;4980437;28;20046;-76
2023/09/12 10:48:46;;;;;;;22.60;20.90;;;;;;;33.58;39.48;101143.75;4972135;28;20055;-76
2023/09/12 10:51:14;;;;;;;24.33;22.52;;;;;;;32.88;41.91;101149.56;4978100;28;20057;-76
2023/09/12 10:53:49;;;;;;;22.15;20.23;;;;;;;34.08;39.20;101145.88;4989041;28;20153;-80
2023/09/12 10:56:18;;;;;;;21.48;19.88;;;;;;;32.44;41.51;101147.44;4984534;28;20138;-79
2023/09/12 10:59:12;;;;;;;20.65;19.15;;;;;;;33.23;39.28;101147.88;4997685;28;20055;-80
2023/09/12 11:01:41;;;;;;;20.20;18.80;;;;;;;32.37;46.55;101138.94;4997438;28;20436;-80
2023/09/12 11:04:35;;;;;;;21.00;19.60;;;;;;;32.88;43.32;101136.59;4999491;28;20049;-80
2023/09/12 11:07:02;;;;;;;22.33;20.90;;;;;;;35.39;37.35;101137.38;4998268;28;20049;-80
2023/09/12 11:09:29;;;;;;;21.83;20.23;;;;;;;31.66;49.37;101146.34;4996275;28;20041;-80